createdAt,value
2022-08-08T00:00:54.656Z,214.09585
2022-08-08T00:06:03.769Z,211.31085
2022-08-08T00:11:07.932Z,207.93325
2022-08-08T00:16:14.942Z,201.71125
2022-08-08T00:21:16.933Z,194.65965
2022-08-08T00:26:26.300Z,188.55615
2022-08-08T00:32:28.742Z,182.2749
2022-08-08T00:37:47.742Z,176.6455
2022-08-08T00:43:06.043Z,170.9568
2022-08-08T00:48:29.312Z,164.20145
2022-08-08T00:53:32.270Z,149.20935
2022-08-08T00:58:54.070Z,123.13595
2022-08-08T01:04:02.028Z,97.8331
2022-08-08T01:09:36.487Z,77.4486
2022-08-08T01:14:53.998Z,67.73045
2022-08-08T01:20:03.284Z,62.27875
2022-08-08T01:25:05.370Z,58.66415
2022-08-08T01:30:10.160Z,60.4419
2022-08-08T01:35:12.484Z,63.70105
2022-08-08T01:40:14.748Z,46.51655
2022-08-08T01:45:16.574Z,21.11675
2022-08-08T01:50:20.757Z,25.69
2022-08-08T01:56:27.134Z,23.3663
2022-08-08T02:02:00.330Z,25.50555
2022-08-08T02:07:06.655Z,16.94855
2022-08-08T02:12:08.678Z,22.02
2022-08-08T02:17:20.399Z,20.85815
2022-08-08T02:22:28.245Z,19.6963
2022-08-08T02:27:38.918Z,18.53445
2022-08-08T02:32:44.692Z,15.23335
2022-08-08T02:37:53.390Z,15.0489
2022-08-08T02:44:35.447Z,11.7478
2022-08-08T02:49:50.882Z,8.4467
2022-08-08T02:54:53.430Z,9.23965
2022-08-08T02:59:58.476Z,6.91595
2022-08-08T03:05:17.616Z,3.25915
2022-08-08T03:10:33.412Z,5.3852
2022-08-08T03:16:00.297Z,3.0615
2022-08-08T03:21:10.200Z,1.6592
2022-08-08T03:26:16.484Z,0.9481
2022-08-08T03:31:25.435Z,0.5333
2022-08-08T03:36:30.092Z,0.4148
2022-08-08T03:42:28.742Z,1.16185
2022-08-08T03:47:39.514Z,0.88715
2022-08-08T03:52:47.895Z,0
2022-08-08T03:58:36.129Z,0
2022-08-08T04:03:58.388Z,0
2022-08-08T04:09:10.758Z,0
2022-08-08T04:14:35.373Z,0
2022-08-08T04:19:37.895Z,0
2022-08-08T04:24:40.644Z,0
2022-08-08T04:29:55.396Z,0
2022-08-08T04:35:02.958Z,0
2022-08-08T04:40:08.145Z,0
2022-08-08T04:45:14.163Z,0
2022-08-08T04:50:23.919Z,0
2022-08-08T04:55:29.251Z,0
2022-08-08T05:00:49.933Z,0
2022-08-08T05:05:53.634Z,0
2022-08-08T05:10:55.322Z,0
2022-08-08T05:16:47.961Z,0
2022-08-08T05:22:00.010Z,0
2022-08-08T05:27:02.422Z,0
2022-08-08T05:32:06.152Z,0
2022-08-08T05:37:18.516Z,0
2022-08-08T05:42:25.733Z,0
2022-08-08T05:47:29.897Z,0
2022-08-08T05:52:54.780Z,0
2022-08-08T05:58:04.067Z,0
2022-08-08T06:03:07.628Z,0
2022-08-08T06:08:28.266Z,0
2022-08-08T06:13:47.066Z,0
2022-08-08T06:18:50.142Z,0
2022-08-08T06:24:02.278Z,0
2022-08-08T06:29:10.678Z,0
2022-08-08T06:34:52.552Z,0
2022-08-08T06:40:16.169Z,0
2022-08-08T06:45:18.499Z,0
2022-08-08T06:50:32.334Z,0
2022-08-08T06:55:37.427Z,0
2022-08-08T07:00:41.027Z,0
2022-08-08T07:05:42.834Z,0
2022-08-08T07:11:03.627Z,0
2022-08-08T07:16:10.259Z,0
2022-08-08T07:21:19.078Z,0
2022-08-08T07:26:28.942Z,0
2022-08-08T07:31:35.300Z,0
2022-08-08T07:36:37.427Z,0
2022-08-08T07:42:03.527Z,0
2022-08-08T07:47:06.483Z,0
2022-08-08T07:52:09.033Z,0
2022-08-08T07:57:17.058Z,0
2022-08-08T08:02:34.910Z,0
2022-08-08T08:07:40.102Z,0
2022-08-08T08:12:43.531Z,0
2022-08-08T08:17:48.506Z,0
2022-08-08T08:22:51.122Z,0
2022-08-08T08:27:53.374Z,0
2022-08-08T08:32:55.016Z,0
2022-08-08T08:38:15.796Z,0
2022-08-08T08:43:20.290Z,0
2022-08-08T08:48:28.908Z,0
2022-08-08T08:53:56.199Z,0
2022-08-08T08:59:01.715Z,0
2022-08-08T09:04:03.715Z,0
2022-08-08T09:09:05.330Z,0
2022-08-08T09:14:09.276Z,0
2022-08-08T09:19:12.198Z,0
2022-08-08T09:24:14.472Z,0
2022-08-08T09:29:22.553Z,0
2022-08-08T09:34:32.442Z,0
2022-08-08T09:39:34.708Z,0
2022-08-08T09:44:38.237Z,0
2022-08-08T09:49:49.851Z,0
2022-08-08T09:54:52.025Z,0
2022-08-08T10:00:28.719Z,0
2022-08-08T10:05:36.057Z,0
2022-08-08T10:10:49.794Z,0
2022-08-08T10:16:00.789Z,0
2022-08-08T10:21:22.940Z,0
2022-08-08T10:26:30.640Z,0
2022-08-08T10:31:46.733Z,0
2022-08-08T10:36:49.265Z,0
2022-08-08T10:41:58.830Z,0
2022-08-08T10:47:20.719Z,0
2022-08-08T10:52:28.119Z,0
2022-08-08T10:57:45.144Z,0
2022-08-08T11:02:52.325Z,0
2022-08-08T11:08:38.099Z,0
2022-08-08T11:13:41.054Z,0
2022-08-08T11:18:53.872Z,0
2022-08-08T11:24:02.125Z,0
2022-08-08T11:29:04.729Z,0
2022-08-08T11:34:22.911Z,0
2022-08-08T11:39:27.657Z,0
2022-08-08T11:44:39.111Z,0
2022-08-08T11:49:42.688Z,0
2022-08-08T11:54:46.683Z,0
2022-08-08T11:59:58.400Z,0
2022-08-08T12:05:04.288Z,0
2022-08-08T12:10:08.828Z,0
2022-08-08T12:15:10.744Z,0
2022-08-08T12:20:14.826Z,0.47405
2022-08-08T12:25:16.448Z,0.8296
2022-08-08T12:30:21.727Z,1.2444
2022-08-08T12:35:26.860Z,1.71845
2022-08-08T12:40:29.854Z,2.42955
2022-08-08T12:45:58.204Z,7.7089
2022-08-08T12:51:04.383Z,4.7767
2022-08-08T12:56:18.713Z,10.4015
2022-08-08T13:01:36.239Z,8.4467
2022-08-08T13:06:38.885Z,9.793
2022-08-08T13:12:04.040Z,12.1167
2022-08-08T13:18:08.559Z,10.5308
2022-08-08T13:23:30.855Z,25.59885
2022-08-08T13:28:42.068Z,28.73945
2022-08-08T13:33:44.478Z,36.44285
2022-08-08T13:38:46.081Z,37.391
2022-08-08T13:43:49.936Z,43.07965
2022-08-08T13:50:33.605Z,45.15365
2022-08-08T13:55:39.903Z,56.4124
2022-08-08T14:00:45.976Z,68.3823
2022-08-08T14:06:00.525Z,75.3154
2022-08-08T14:11:03.331Z,76.7376
2022-08-08T14:16:15.835Z,75.31545
2022-08-08T14:21:20.762Z,78.57455
2022-08-08T14:26:28.106Z,73.8933
2022-08-08T14:31:36.830Z,81.47825
2022-08-08T14:37:08.293Z,89.774
2022-08-08T14:42:10.264Z,101.38835
2022-08-08T14:47:16.898Z,105.12155
2022-08-08T14:52:23.252Z,128.1725
2022-08-08T14:58:02.985Z,135.34265
2022-08-08T15:03:16.081Z,135.3428
2022-08-08T15:08:22.111Z,72.4118
2022-08-08T15:13:40.954Z,68.61935
2022-08-08T15:19:03.132Z,82.78185
2022-08-08T15:24:04.746Z,146.66105
2022-08-08T15:29:14.291Z,231.51715
2022-08-08T15:34:18.812Z,255.16055
2022-08-08T15:39:37.439Z,235.1315
2022-08-08T15:44:41.018Z,223.45775
2022-08-08T15:49:43.889Z,254.5084
2022-08-08T15:54:46.108Z,274.1225
2022-08-08T16:00:10.971Z,275.5447
2022-08-08T16:05:36.062Z,309.6176
2022-08-08T16:13:28.300Z,318.68405
2022-08-08T16:18:35.957Z,261.1453
2022-08-08T16:23:37.568Z,269.38215
2022-08-08T16:28:41.479Z,261.02695
2022-08-08T16:33:59.060Z,258.3012
2022-08-08T16:39:01.310Z,258.65685
2022-08-08T16:44:12.855Z,274.8933
2022-08-08T16:49:14.653Z,298.18135
2022-08-08T16:55:18.387Z,298.95185
2022-08-08T17:00:27.422Z,276.67115
2022-08-08T17:05:31.363Z,266.71585
2022-08-08T17:10:57.923Z,268.73055
2022-08-08T17:16:15.204Z,271.21925
2022-08-08T17:21:17.390Z,285.55945
2022-08-08T17:26:28.826Z,285.3225
2022-08-08T17:31:44.243Z,276.6117
2022-08-08T17:37:00.363Z,273.0563
2022-08-08T17:42:04.962Z,251.13115
2022-08-08T17:47:06.670Z,241.1166
2022-08-08T17:52:11.473Z,245.7979
2022-08-08T17:57:14.231Z,239.7536
2022-08-08T18:02:21.231Z,229.7983
2022-08-08T18:08:02.356Z,244.37555
2022-08-08T18:13:07.580Z,267.3082
2022-08-08T18:18:29.260Z,268.7897
2022-08-08T18:23:33.695Z,272.34515
2022-08-08T18:28:54.796Z,292.3742
2022-08-08T18:34:12.268Z,294.44825
2022-08-08T18:39:29.612Z,279.45615
2022-08-08T18:44:32.913Z,264.58265
2022-08-08T18:49:54.694Z,238.68715
2022-08-08T18:55:09.634Z,216.7619
2022-08-08T19:00:16.816Z,205.3252
2022-08-08T19:05:21.577Z,193.1774
2022-08-08T19:10:23.370Z,188.7923
2022-08-08T19:15:33.879Z,185.5924
2022-08-08T19:20:36.159Z,183.2221
2022-08-08T19:26:02.019Z,180.9703
2022-08-08T19:31:31.042Z,181.38515
2022-08-08T19:36:36.565Z,181.9185
2022-08-08T19:41:39.888Z,179.252
2022-08-08T19:46:43.177Z,179.6668
2022-08-08T19:51:46.654Z,179.6075
2022-08-08T19:56:50.691Z,187.78505
2022-08-08T20:02:03.552Z,196.14025
2022-08-08T20:08:30.538Z,216.52475
2022-08-08T20:14:31.545Z,234.95375
2022-08-08T20:19:42.247Z,248.2865
2022-08-08T20:24:45.148Z,257.41195
2022-08-08T20:30:01.078Z,266.53735
2022-08-08T20:35:03.163Z,271.5148
2022-08-08T20:40:04.829Z,279.45515
2022-08-08T20:45:06.490Z,288.40285
2022-08-08T20:50:10.015Z,293.49885
2022-08-08T20:55:16.228Z,296.99495
2022-08-08T21:00:27.497Z,301.08365
2022-08-08T21:05:31.957Z,306.06125
2022-08-08T21:10:33.854Z,307.89825
2022-08-08T21:16:05.811Z,311.03885
2022-08-08T21:21:29.755Z,309.67595
2022-08-08T21:26:42.920Z,309.85375
2022-08-08T21:31:53.030Z,308.9057
2022-08-08T21:37:05.290Z,309.32055
2022-08-08T21:42:13.043Z,308.3133
2022-08-08T21:48:08.717Z,312.0466
2022-08-08T21:54:34.835Z,311.3949
2022-08-08T22:00:02.836Z,309.321
2022-08-08T22:05:06.456Z,309.3211
2022-08-08T22:10:09.362Z,308.6693
2022-08-08T22:15:11.206Z,305.23245
2022-08-08T22:20:23.709Z,300.19565
2022-08-08T22:25:29.960Z,293.9144
2022-08-08T22:31:21.764Z,291.8405
2022-08-08T22:36:34.346Z,286.27035
2022-08-08T22:41:36.420Z,281.17435
2022-08-08T22:46:41.152Z,277.4412
2022-08-08T22:51:46.812Z,270.68595
2022-08-08T22:56:50.123Z,264.9973
2022-08-08T23:02:03.721Z,261.79745
2022-08-08T23:07:06.372Z,257.6495
2022-08-08T23:12:28.705Z,251.54605
2022-08-08T23:17:54.074Z,247.5166
2022-08-08T23:22:56.164Z,244.37595
2022-08-08T23:27:57.852Z,240.40575
2022-08-08T23:33:01.148Z,235.36895
2022-08-08T23:38:03.885Z,227.4285
2022-08-08T23:43:05.670Z,221.7991
2022-08-08T23:48:59.628Z,216.7623
2022-08-08T23:54:53.207Z,213.918
